This is the latest recevied weather packets stored in our database for station/object IZ1BLA-10. If no packets are shown the sender has not sent any weather packets the latest 10 day(s).
| Time | Temp. | Humidity | Pressure | Rain* | Wind** | Luminosity | Snow |
|---|---|---|---|---|---|---|---|
| 1777897753 | 20° C | 42% | 1015.9 hPa | - | - | - | - |
| 1777897153 | 19.44° C | 44% | 1015.9 hPa | - | - | - | - |
| 1777896552 | 17.78° C | 46% | 1016.5 hPa | - | - | - | - |
| 1777895952 | 17.22° C | 48% | 1016.9 hPa | - | - | - | - |
| 1777895352 | 17.22° C | 48% | 1017 hPa | - | - | - | - |
| 1777894753 | 17.78° C | 47% | 1016.7 hPa | - | - | - | - |
| 1777894152 | 17.78° C | 47% | 1016.8 hPa | - | - | - | - |
| 1777893552 | 17.78° C | 45% | 1016.7 hPa | - | - | - | - |
| 1777892953 | 18.33° C | 43% | 1016.8 hPa | - | - | - | - |
| 1777892352 | 17.78° C | 45% | 1017 hPa | - | - | - | - |
| 1777891753 | 17.78° C | 44% | 1017 hPa | - | - | - | - |
| 1777891152 | 18.33° C | 42% | 1016.9 hPa | - | - | - | - |
| 1777890552 | 17.78° C | 42% | 1017 hPa | - | - | - | - |
| 1777889952 | 17.78° C | 42% | 1017 hPa | - | - | - | - |
| 1777889353 | 17.78° C | 42% | 1017 hPa | - | - | - | - |
| 1777888753 | 17.78° C | 42% | 1017.2 hPa | - | - | - | - |
| 1777888153 | 17.78° C | 44% | 1017.1 hPa | - | - | - | - |
| 1777887552 | 18.33° C | 45% | 1017.1 hPa | - | - | - | - |
| 1777886953 | 18.33° C | 46% | 1017 hPa | - | - | - | - |
| 1777886352 | 17.22° C | 51% | 1017.2 hPa | - | - | - | - |
| 1777885753 | 17.78° C | 55% | 1017 hPa | - | - | - | - |
| 1777885152 | 16.11° C | 56% | 1017.3 hPa | - | - | - | - |
| 1777884553 | 16.67° C | 56% | 1017.3 hPa | - | - | - | - |
| 1777883953 | 17.22° C | 53% | 1017 hPa | - | - | - | - |
| 1777883352 | 17.22° C | 53% | 1016.9 hPa | - | - | - | - |
* Rain since midnight (hover to see other rain measurements)
** Current wind speed in m/s (hover to see current wind gust speed)